sensor_id;sensor_type;location;lat;lon;timestamp;pressure;altitude;pressure_sealevel;temperature;humidity
11339;BME280;5724;42.684;23.252;2022-08-07T00:00:42;94126.13;;;22.36;56.36
11339;BME280;5724;42.684;23.252;2022-08-07T00:03:09;94117.44;;;22.34;56.49
11339;BME280;5724;42.684;23.252;2022-08-07T00:05:35;94116.56;;;22.37;56.21
11339;BME280;5724;42.684;23.252;2022-08-07T00:08:02;94126.97;;;22.20;58.06
11339;BME280;5724;42.684;23.252;2022-08-07T00:10:29;94121.16;;;22.14;58.38
11339;BME280;5724;42.684;23.252;2022-08-07T00:12:56;94118.19;;;22.05;58.25
11339;BME280;5724;42.684;23.252;2022-08-07T00:15:22;94116.28;;;22.02;58.82
11339;BME280;5724;42.684;23.252;2022-08-07T00:17:50;94119.34;;;22.08;58.39
11339;BME280;5724;42.684;23.252;2022-08-07T00:20:15;94116.38;;;21.98;58.70
11339;BME280;5724;42.684;23.252;2022-08-07T00:22:41;94118.63;;;22.04;58.78
11339;BME280;5724;42.684;23.252;2022-08-07T00:25:07;94119.09;;;21.86;59.02
11339;BME280;5724;42.684;23.252;2022-08-07T00:27:34;94123.25;;;21.78;59.27
11339;BME280;5724;42.684;23.252;2022-08-07T00:30:00;94119.88;;;21.86;59.06
11339;BME280;5724;42.684;23.252;2022-08-07T00:32:26;94132.38;;;21.94;58.83
11339;BME280;5724;42.684;23.252;2022-08-07T00:34:51;94133.50;;;21.97;58.16
11339;BME280;5724;42.684;23.252;2022-08-07T00:37:18;94127.34;;;21.89;59.05
11339;BME280;5724;42.684;23.252;2022-08-07T00:39:43;94140.72;;;21.94;59.64
11339;BME280;5724;42.684;23.252;2022-08-07T00:42:09;94133.16;;;21.95;60.06
11339;BME280;5724;42.684;23.252;2022-08-07T00:44:35;94138.66;;;21.82;60.83
11339;BME280;5724;42.684;23.252;2022-08-07T00:47:02;94139.63;;;21.76;60.64
11339;BME280;5724;42.684;23.252;2022-08-07T00:49:28;94140.03;;;21.58;61.11
11339;BME280;5724;42.684;23.252;2022-08-07T00:51:54;94129.47;;;21.53;61.15
11339;BME280;5724;42.684;23.252;2022-08-07T00:54:19;94129.72;;;21.58;61.45
11339;BME280;5724;42.684;23.252;2022-08-07T00:56:45;94133.44;;;21.68;60.81
11339;BME280;5724;42.684;23.252;2022-08-07T00:59:11;94123.16;;;21.32;61.85
11339;BME280;5724;42.684;23.252;2022-08-07T01:01:37;94135.63;;;21.44;61.35
11339;BME280;5724;42.684;23.252;2022-08-07T01:04:06;94142.22;;;21.50;60.98
11339;BME280;5724;42.684;23.252;2022-08-07T01:06:32;94139.00;;;21.52;60.91
11339;BME280;5724;42.684;23.252;2022-08-07T01:08:59;94126.75;;;21.49;61.23
11339;BME280;5724;42.684;23.252;2022-08-07T01:11:24;94139.09;;;21.48;61.04
11339;BME280;5724;42.684;23.252;2022-08-07T01:13:50;94124.69;;;21.53;60.66
11339;BME280;5724;42.684;23.252;2022-08-07T01:16:16;94134.94;;;21.56;60.63
11339;BME280;5724;42.684;23.252;2022-08-07T01:18:41;94130.03;;;21.60;60.37
11339;BME280;5724;42.684;23.252;2022-08-07T01:21:15;94118.25;;;21.56;59.55
11339;BME280;5724;42.684;23.252;2022-08-07T01:23:43;94139.00;;;21.68;60.29
11339;BME280;5724;42.684;23.252;2022-08-07T01:26:11;94139.09;;;21.64;60.42
11339;BME280;5724;42.684;23.252;2022-08-07T01:28:38;94143.25;;;21.56;60.89
11339;BME280;5724;42.684;23.252;2022-08-07T01:31:04;94151.09;;;21.45;61.78
11339;BME280;5724;42.684;23.252;2022-08-07T01:33:30;94145.19;;;21.43;62.41
11339;BME280;5724;42.684;23.252;2022-08-07T01:35:57;94148.41;;;21.22;62.87
11339;BME280;5724;42.684;23.252;2022-08-07T01:38:25;94137.66;;;21.24;62.68
11339;BME280;5724;42.684;23.252;2022-08-07T01:40:53;94141.84;;;21.32;62.70
11339;BME280;5724;42.684;23.252;2022-08-07T01:43:19;94147.53;;;21.08;63.12
11339;BME280;5724;42.684;23.252;2022-08-07T01:45:45;94158.09;;;20.97;63.20
11339;BME280;5724;42.684;23.252;2022-08-07T01:48:11;94160.94;;;20.74;64.30
11339;BME280;5724;42.684;23.252;2022-08-07T01:50:38;94159.19;;;20.64;64.48
11339;BME280;5724;42.684;23.252;2022-08-07T01:53:05;94167.22;;;20.78;64.11
11339;BME280;5724;42.684;23.252;2022-08-07T01:55:48;94185.31;;;20.86;63.83
11339;BME280;5724;42.684;23.252;2022-08-07T01:58:18;94202.31;;;20.88;64.25
11339;BME280;5724;42.684;23.252;2022-08-07T02:00:50;94213.13;;;20.82;64.70
11339;BME280;5724;42.684;23.252;2022-08-07T02:03:19;94231.31;;;20.87;64.66
11339;BME280;5724;42.684;23.252;2022-08-07T02:05:54;94258.50;;;20.76;65.32
11339;BME280;5724;42.684;23.252;2022-08-07T02:08:23;94257.66;;;20.79;65.00
11339;BME280;5724;42.684;23.252;2022-08-07T02:10:50;94250.88;;;20.80;65.33
11339;BME280;5724;42.684;23.252;2022-08-07T02:13:22;94245.41;;;20.76;65.86
11339;BME280;5724;42.684;23.252;2022-08-07T02:15:50;94246.66;;;20.72;66.17
11339;BME280;5724;42.684;23.252;2022-08-07T02:18:18;94252.09;;;20.79;66.32
11339;BME280;5724;42.684;23.252;2022-08-07T02:20:46;94253.56;;;20.83;66.95
11339;BME280;5724;42.684;23.252;2022-08-07T02:23:14;94259.13;;;20.83;67.91
11339;BME280;5724;42.684;23.252;2022-08-07T02:25:42;94252.56;;;20.74;68.63
11339;BME280;5724;42.684;23.252;2022-08-07T02:28:09;94247.56;;;20.65;69.71
11339;BME280;5724;42.684;23.252;2022-08-07T02:30:37;94229.56;;;20.53;70.59
11339;BME280;5724;42.684;23.252;2022-08-07T02:33:03;94212.81;;;20.37;71.66
11339;BME280;5724;42.684;23.252;2022-08-07T02:35:32;94202.81;;;20.43;72.15
11339;BME280;5724;42.684;23.252;2022-08-07T02:37:59;94193.25;;;20.44;72.47
11339;BME280;5724;42.684;23.252;2022-08-07T02:40:27;94172.34;;;20.60;72.28
11339;BME280;5724;42.684;23.252;2022-08-07T02:42:54;94163.25;;;20.59;72.90
11339;BME280;5724;42.684;23.252;2022-08-07T02:45:23;94158.13;;;20.57;73.30
11339;BME280;5724;42.684;23.252;2022-08-07T02:47:51;94157.91;;;20.68;73.09
11339;BME280;5724;42.684;23.252;2022-08-07T02:50:16;94173.06;;;20.64;74.15
11339;BME280;5724;42.684;23.252;2022-08-07T02:52:46;94177.91;;;20.60;74.52
11339;BME280;5724;42.684;23.252;2022-08-07T02:55:19;94181.69;;;20.69;74.39
11339;BME280;5724;42.684;23.252;2022-08-07T02:57:46;94173.69;;;20.71;74.90
11339;BME280;5724;42.684;23.252;2022-08-07T03:00:12;94176.69;;;20.80;74.39
11339;BME280;5724;42.684;23.252;2022-08-07T03:02:44;94169.91;;;20.81;73.81
11339;BME280;5724;42.684;23.252;2022-08-07T03:05:11;94168.47;;;20.93;73.59
11339;BME280;5724;42.684;23.252;2022-08-07T03:07:38;94158.53;;;20.96;73.82
11339;BME280;5724;42.684;23.252;2022-08-07T03:10:06;94149.75;;;20.97;73.89
11339;BME280;5724;42.684;23.252;2022-08-07T03:12:33;94139.50;;;20.94;73.57
11339;BME280;5724;42.684;23.252;2022-08-07T03:15:00;94145.66;;;21.02;73.13
11339;BME280;5724;42.684;23.252;2022-08-07T03:17:26;94149.53;;;21.08;73.04
11339;BME280;5724;42.684;23.252;2022-08-07T03:19:53;94152.06;;;21.19;73.17
11339;BME280;5724;42.684;23.252;2022-08-07T03:22:20;94148.84;;;21.20;72.72
11339;BME280;5724;42.684;23.252;2022-08-07T03:24:46;94153.75;;;20.96;73.19
11339;BME280;5724;42.684;23.252;2022-08-07T03:27:13;94168.66;;;20.86;76.11
11339;BME280;5724;42.684;23.252;2022-08-07T03:29:44;94162.09;;;20.37;78.63
11339;BME280;5724;42.684;23.252;2022-08-07T03:32:12;94162.47;;;20.35;78.23
11339;BME280;5724;42.684;23.252;2022-08-07T03:34:44;94158.09;;;19.94;80.70
11339;BME280;5724;42.684;23.252;2022-08-07T03:37:11;94163.44;;;20.05;80.73
11339;BME280;5724;42.684;23.252;2022-08-07T03:39:38;94163.63;;;19.94;82.00
11339;BME280;5724;42.684;23.252;2022-08-07T03:42:04;94160.38;;;19.76;83.28
11339;BME280;5724;42.684;23.252;2022-08-07T03:44:32;94169.63;;;19.69;83.63
11339;BME280;5724;42.684;23.252;2022-08-07T03:46:59;94164.00;;;19.46;85.39
11339;BME280;5724;42.684;23.252;2022-08-07T03:49:26;94170.16;;;19.34;85.64
11339;BME280;5724;42.684;23.252;2022-08-07T03:51:52;94173.38;;;19.29;86.08
11339;BME280;5724;42.684;23.252;2022-08-07T03:54:18;94186.59;;;19.17;86.13
11339;BME280;5724;42.684;23.252;2022-08-07T03:56:44;94188.41;;;19.31;85.36
11339;BME280;5724;42.684;23.252;2022-08-07T03:59:11;94195.56;;;19.56;83.78
11339;BME280;5724;42.684;23.252;2022-08-07T04:01:42;94188.34;;;19.62;84.06
11339;BME280;5724;42.684;23.252;2022-08-07T04:04:09;94193.91;;;19.62;84.15
11339;BME280;5724;42.684;23.252;2022-08-07T04:06:37;94198.72;;;19.81;83.53
11339;BME280;5724;42.684;23.252;2022-08-07T04:09:08;94200.44;;;19.98;82.89
11339;BME280;5724;42.684;23.252;2022-08-07T04:11:34;94191.53;;;20.07;82.70
11339;BME280;5724;42.684;23.252;2022-08-07T04:14:01;94190.59;;;20.17;82.26
11339;BME280;5724;42.684;23.252;2022-08-07T04:16:27;94193.56;;;20.26;82.93
11339;BME280;5724;42.684;23.252;2022-08-07T04:18:53;94196.16;;;20.37;82.95
11339;BME280;5724;42.684;23.252;2022-08-07T04:21:19;94199.53;;;20.48;81.59
11339;BME280;5724;42.684;23.252;2022-08-07T04:23:45;94194.66;;;20.56;81.55
11339;BME280;5724;42.684;23.252;2022-08-07T04:26:12;94204.09;;;20.58;82.27
11339;BME280;5724;42.684;23.252;2022-08-07T04:28:39;94208.59;;;20.72;81.64
11339;BME280;5724;42.684;23.252;2022-08-07T04:31:05;94208.94;;;20.74;81.84
11339;BME280;5724;42.684;23.252;2022-08-07T04:33:31;94214.09;;;20.76;81.31
11339;BME280;5724;42.684;23.252;2022-08-07T04:35:57;94219.63;;;20.76;81.29
11339;BME280;5724;42.684;23.252;2022-08-07T04:38:24;94219.78;;;20.89;80.20
11339;BME280;5724;42.684;23.252;2022-08-07T04:40:50;94224.59;;;21.04;78.79
11339;BME280;5724;42.684;23.252;2022-08-07T04:43:20;94221.44;;;21.02;78.93
11339;BME280;5724;42.684;23.252;2022-08-07T04:46:08;94218.44;;;21.13;78.30
11339;BME280;5724;42.684;23.252;2022-08-07T04:51:40;94221.09;;;21.20;77.66
11339;BME280;5724;42.684;23.252;2022-08-07T04:57:21;94225.75;;;21.07;78.30
11339;BME280;5724;42.684;23.252;2022-08-07T05:00:08;94235.94;;;21.13;78.23
11339;BME280;5724;42.684;23.252;2022-08-07T05:02:56;94232.28;;;21.17;78.42
11339;BME280;5724;42.684;23.252;2022-08-07T05:05:38;94233.41;;;21.39;77.27
11339;BME280;5724;42.684;23.252;2022-08-07T05:08:14;94243.78;;;21.55;77.02
11339;BME280;5724;42.684;23.252;2022-08-07T05:10:51;94244.94;;;21.74;75.41
11339;BME280;5724;42.684;23.252;2022-08-07T05:13:27;94243.63;;;21.78;74.73
11339;BME280;5724;42.684;23.252;2022-08-07T05:15:55;94244.88;;;21.93;74.05
11339;BME280;5724;42.684;23.252;2022-08-07T05:18:34;94243.03;;;22.03;73.34
11339;BME280;5724;42.684;23.252;2022-08-07T05:21:05;94249.84;;;22.18;73.05
11339;BME280;5724;42.684;23.252;2022-08-07T05:23:40;94250.88;;;22.24;72.70
11339;BME280;5724;42.684;23.252;2022-08-07T05:26:13;94251.72;;;22.54;71.69
11339;BME280;5724;42.684;23.252;2022-08-07T05:28:41;94252.44;;;22.42;72.53
11339;BME280;5724;42.684;23.252;2022-08-07T05:31:10;94255.00;;;22.65;71.38
11339;BME280;5724;42.684;23.252;2022-08-07T05:33:37;94256.38;;;22.73;69.46
11339;BME280;5724;42.684;23.252;2022-08-07T05:36:06;94252.97;;;22.82;69.02
11339;BME280;5724;42.684;23.252;2022-08-07T05:38:32;94257.19;;;23.03;68.08
11339;BME280;5724;42.684;23.252;2022-08-07T05:41:00;94252.84;;;23.02;67.89
11339;BME280;5724;42.684;23.252;2022-08-07T05:43:25;94260.53;;;22.98;68.40
11339;BME280;5724;42.684;23.252;2022-08-07T05:45:51;94267.22;;;23.00;68.01
11339;BME280;5724;42.684;23.252;2022-08-07T05:48:18;94263.53;;;23.03;67.94
11339;BME280;5724;42.684;23.252;2022-08-07T05:50:44;94276.66;;;23.19;68.02
11339;BME280;5724;42.684;23.252;2022-08-07T05:53:10;94279.47;;;23.45;67.49
11339;BME280;5724;42.684;23.252;2022-08-07T05:55:37;94279.88;;;23.59;66.61
11339;BME280;5724;42.684;23.252;2022-08-07T05:58:04;94289.47;;;23.71;65.51
11339;BME280;5724;42.684;23.252;2022-08-07T06:00:32;94291.84;;;23.85;65.41
11339;BME280;5724;42.684;23.252;2022-08-07T06:02:59;94297.53;;;23.82;65.07
11339;BME280;5724;42.684;23.252;2022-08-07T06:05:25;94300.13;;;23.47;66.00
11339;BME280;5724;42.684;23.252;2022-08-07T06:07:54;94291.84;;;23.43;66.76
11339;BME280;5724;42.684;23.252;2022-08-07T06:10:20;94299.66;;;23.65;66.58
11339;BME280;5724;42.684;23.252;2022-08-07T06:12:47;94287.91;;;23.70;66.33
11339;BME280;5724;42.684;23.252;2022-08-07T06:15:14;94170.16;;;23.11;65.47
11339;BME280;5724;42.684;23.252;2022-08-07T06:17:42;94301.56;;;23.93;65.04
11339;BME280;5724;42.684;23.252;2022-08-07T06:20:08;94303.00;;;23.85;65.28
11339;BME280;5724;42.684;23.252;2022-08-07T06:22:35;94299.28;;;23.63;64.34
11339;BME280;5724;42.684;23.252;2022-08-07T06:25:02;94291.59;;;23.80;64.94
11339;BME280;5724;42.684;23.252;2022-08-07T06:27:28;94293.75;;;24.14;63.73
11339;BME280;5724;42.684;23.252;2022-08-07T06:29:53;94297.44;;;24.23;62.84
11339;BME280;5724;42.684;23.252;2022-08-07T06:32:19;94300.78;;;24.44;63.11
11339;BME280;5724;42.684;23.252;2022-08-07T06:34:46;94297.97;;;24.57;61.95
11339;BME280;5724;42.684;23.252;2022-08-07T06:37:11;94288.47;;;24.54;61.55
11339;BME280;5724;42.684;23.252;2022-08-07T06:39:37;94291.41;;;24.85;61.02
11339;BME280;5724;42.684;23.252;2022-08-07T06:42:12;94295.22;;;24.78;60.28
11339;BME280;5724;42.684;23.252;2022-08-07T06:44:41;94290.75;;;24.81;60.20
11339;BME280;5724;42.684;23.252;2022-08-07T06:47:08;94283.84;;;24.73;60.79
11339;BME280;5724;42.684;23.252;2022-08-07T06:49:34;94278.00;;;24.80;60.15
11339;BME280;5724;42.684;23.252;2022-08-07T06:52:01;94283.16;;;24.69;59.71
11339;BME280;5724;42.684;23.252;2022-08-07T06:54:27;94291.28;;;24.41;60.49
11339;BME280;5724;42.684;23.252;2022-08-07T06:56:55;94287.59;;;24.32;60.09
11339;BME280;5724;42.684;23.252;2022-08-07T06:59:26;94292.41;;;24.31;60.30
11339;BME280;5724;42.684;23.252;2022-08-07T07:01:54;94287.28;;;24.42;60.08
11339;BME280;5724;42.684;23.252;2022-08-07T07:04:23;94288.59;;;24.38;60.17
11339;BME280;5724;42.684;23.252;2022-08-07T07:06:50;94292.81;;;24.55;60.17
11339;BME280;5724;42.684;23.252;2022-08-07T07:09:26;94292.69;;;24.71;59.28
11339;BME280;5724;42.684;23.252;2022-08-07T07:15:04;94284.78;;;24.92;56.83
11339;BME280;5724;42.684;23.252;2022-08-07T07:17:43;94298.06;;;25.00;56.77
11339;BME280;5724;42.684;23.252;2022-08-07T07:20:15;94295.03;;;25.07;56.63
11339;BME280;5724;42.684;23.252;2022-08-07T07:22:43;94287.44;;;25.30;55.23
11339;BME280;5724;42.684;23.252;2022-08-07T07:25:11;94291.59;;;25.47;54.81
11339;BME280;5724;42.684;23.252;2022-08-07T07:27:41;94268.72;;;25.39;55.36
11339;BME280;5724;42.684;23.252;2022-08-07T07:30:10;94288.00;;;25.68;54.40
11339;BME280;5724;42.684;23.252;2022-08-07T07:32:38;94293.03;;;25.74;54.19
11339;BME280;5724;42.684;23.252;2022-08-07T07:35:05;94290.69;;;25.72;55.01
11339;BME280;5724;42.684;23.252;2022-08-07T07:37:33;94298.22;;;25.62;55.24
11339;BME280;5724;42.684;23.252;2022-08-07T07:40:04;94299.75;;;25.85;54.51
11339;BME280;5724;42.684;23.252;2022-08-07T07:42:32;94292.91;;;25.77;53.64
11339;BME280;5724;42.684;23.252;2022-08-07T07:45:03;94296.66;;;25.83;52.69
11339;BME280;5724;42.684;23.252;2022-08-07T07:47:33;94290.94;;;25.96;51.90
11339;BME280;5724;42.684;23.252;2022-08-07T07:50:01;94294.50;;;25.87;50.69
11339;BME280;5724;42.684;23.252;2022-08-07T07:52:28;94302.75;;;25.91;50.99
11339;BME280;5724;42.684;23.252;2022-08-07T07:54:54;94261.03;;;25.84;51.62
11339;BME280;5724;42.684;23.252;2022-08-07T07:57:22;94288.88;;;26.18;49.81
11339;BME280;5724;42.684;23.252;2022-08-07T07:59:49;94273.47;;;26.23;49.78
11339;BME280;5724;42.684;23.252;2022-08-07T08:02:17;94299.78;;;26.16;50.23
11339;BME280;5724;42.684;23.252;2022-08-07T08:04:45;94285.13;;;26.12;49.74
11339;BME280;5724;42.684;23.252;2022-08-07T08:07:12;94296.56;;;26.36;49.85
11339;BME280;5724;42.684;23.252;2022-08-07T08:09:38;94296.66;;;26.23;50.38
11339;BME280;5724;42.684;23.252;2022-08-07T08:12:05;94303.28;;;26.39;50.51
11339;BME280;5724;42.684;23.252;2022-08-07T08:14:32;94298.69;;;26.54;50.98
11339;BME280;5724;42.684;23.252;2022-08-07T08:17:00;94308.34;;;26.71;49.65
11339;BME280;5724;42.684;23.252;2022-08-07T08:19:27;94289.34;;;26.57;49.57
11339;BME280;5724;42.684;23.252;2022-08-07T08:21:56;94298.81;;;26.50;50.78
11339;BME280;5724;42.684;23.252;2022-08-07T08:24:42;94308.66;;;26.55;51.50
11339;BME280;5724;42.684;23.252;2022-08-07T08:27:30;94311.44;;;26.55;50.06
11339;BME280;5724;42.684;23.252;2022-08-07T08:30:09;94326.72;;;26.54;50.42
11339;BME280;5724;42.684;23.252;2022-08-07T08:32:39;94313.06;;;26.74;50.29
11339;BME280;5724;42.684;23.252;2022-08-07T08:35:08;94314.94;;;26.87;49.60
11339;BME280;5724;42.684;23.252;2022-08-07T08:37:36;94313.22;;;26.98;49.51
11339;BME280;5724;42.684;23.252;2022-08-07T08:40:08;94311.06;;;27.21;48.73
11339;BME280;5724;42.684;23.252;2022-08-07T08:45:11;94320.59;;;27.23;47.81
11339;BME280;5724;42.684;23.252;2022-08-07T08:47:55;94307.97;;;27.37;48.58
11339;BME280;5724;42.684;23.252;2022-08-07T08:50:31;94313.56;;;27.28;47.42
11339;BME280;5724;42.684;23.252;2022-08-07T08:53:15;94315.31;;;27.34;47.65
11339;BME280;5724;42.684;23.252;2022-08-07T08:55:48;94309.69;;;27.07;47.80
11339;BME280;5724;42.684;23.252;2022-08-07T09:00:45;94310.00;;;27.09;48.23
11339;BME280;5724;42.684;23.252;2022-08-07T09:03:54;94308.13;;;27.15;47.93
11339;BME280;5724;42.684;23.252;2022-08-07T09:06:32;94315.13;;;27.20;48.39
11339;BME280;5724;42.684;23.252;2022-08-07T09:09:17;94304.66;;;27.02;48.91
11339;BME280;5724;42.684;23.252;2022-08-07T09:12:07;94306.84;;;26.89;49.32
11339;BME280;5724;42.684;23.252;2022-08-07T09:14:40;94300.59;;;26.85;49.29
11339;BME280;5724;42.684;23.252;2022-08-07T09:28:04;94290.81;;;27.35;47.81
11339;BME280;5724;42.684;23.252;2022-08-07T09:30:57;94278.19;;;27.39;47.80
11339;BME280;5724;42.684;23.252;2022-08-07T09:39:44;94288.72;;;27.90;45.76
11339;BME280;5724;42.684;23.252;2022-08-07T09:42:33;94284.66;;;27.91;45.42
11339;BME280;5724;42.684;23.252;2022-08-07T09:45:06;94289.88;;;28.17;45.18
11339;BME280;5724;42.684;23.252;2022-08-07T09:53:10;94284.00;;;27.97;45.56
11339;BME280;5724;42.684;23.252;2022-08-07T10:04:09;94281.75;;;27.67;46.51
11339;BME280;5724;42.684;23.252;2022-08-07T10:09:42;94264.03;;;27.34;46.39
11339;BME280;5724;42.684;23.252;2022-08-07T10:31:06;94254.25;;;27.90;42.22
11339;BME280;5724;42.684;23.252;2022-08-07T10:39:28;94258.91;;;27.93;43.66
11339;BME280;5724;42.684;23.252;2022-08-07T10:42:23;94252.03;;;28.27;44.06
11339;BME280;5724;42.684;23.252;2022-08-07T10:45:34;94263.13;;;28.40;43.88
11339;BME280;5724;42.684;23.252;2022-08-07T10:47:50;94268.34;;;27.53;46.05
11339;BME280;5724;42.684;23.252;2022-08-07T10:50:26;94267.34;;;27.93;45.28
11339;BME280;5724;42.684;23.252;2022-08-07T10:53:02;94259.16;;;27.71;45.51
11339;BME280;5724;42.684;23.252;2022-08-07T10:55:51;94250.09;;;27.67;44.69
11339;BME280;5724;42.684;23.252;2022-08-07T10:58:45;94274.00;;;27.07;45.60
11339;BME280;5724;42.684;23.252;2022-08-07T11:04:51;94260.41;;;27.52;45.91
11339;BME280;5724;42.684;23.252;2022-08-07T11:10:26;94257.59;;;26.78;45.56
11339;BME280;5724;42.684;23.252;2022-08-07T11:12:59;94264.28;;;26.81;45.68
11339;BME280;5724;42.684;23.252;2022-08-07T11:15:31;94272.91;;;27.05;45.37
11339;BME280;5724;42.684;23.252;2022-08-07T11:18:03;94278.84;;;27.25;45.54
11339;BME280;5724;42.684;23.252;2022-08-07T11:28:34;94232.75;;;27.78;45.41
11339;BME280;5724;42.684;23.252;2022-08-07T11:31:09;94240.19;;;28.32;44.55
11339;BME280;5724;42.684;23.252;2022-08-07T11:33:48;94232.06;;;28.34;44.32
11339;BME280;5724;42.684;23.252;2022-08-07T11:42:21;94243.94;;;28.86;41.63
11339;BME280;5724;42.684;23.252;2022-08-07T11:55:54;94260.47;;;28.27;44.89
11339;BME280;5724;42.684;23.252;2022-08-07T12:01:12;94258.94;;;28.59;44.85
11339;BME280;5724;42.684;23.252;2022-08-07T12:07:22;94248.72;;;28.71;45.24
11339;BME280;5724;42.684;23.252;2022-08-07T12:09:55;94251.66;;;28.76;45.32
11339;BME280;5724;42.684;23.252;2022-08-07T12:12:26;94252.03;;;28.84;45.33
11339;BME280;5724;42.684;23.252;2022-08-07T12:15:03;94245.31;;;28.67;45.28
11339;BME280;5724;42.684;23.252;2022-08-07T12:17:38;94267.03;;;28.90;45.35
11339;BME280;5724;42.684;23.252;2022-08-07T12:20:11;94251.22;;;29.17;45.15
11339;BME280;5724;42.684;23.252;2022-08-07T12:25:54;94245.44;;;28.96;46.04
11339;BME280;5724;42.684;23.252;2022-08-07T12:31:35;94253.50;;;28.22;45.39
11339;BME280;5724;42.684;23.252;2022-08-07T12:34:02;94249.25;;;28.27;44.63
11339;BME280;5724;42.684;23.252;2022-08-07T12:36:29;94208.03;;;28.00;44.25
11339;BME280;5724;42.684;23.252;2022-08-07T12:38:58;94242.72;;;28.30;44.48
11339;BME280;5724;42.684;23.252;2022-08-07T12:41:25;94229.00;;;28.47;44.66
11339;BME280;5724;42.684;23.252;2022-08-07T12:43:53;94232.63;;;28.71;44.23
11339;BME280;5724;42.684;23.252;2022-08-07T12:47:23;94222.66;;;28.85;44.67
11339;BME280;5724;42.684;23.252;2022-08-07T12:50:11;94237.22;;;28.60;44.45
11339;BME280;5724;42.684;23.252;2022-08-07T12:52:50;94230.47;;;28.66;45.15
11339;BME280;5724;42.684;23.252;2022-08-07T12:55:28;94218.88;;;28.49;43.34
11339;BME280;5724;42.684;23.252;2022-08-07T12:57:57;94238.09;;;28.66;41.06
11339;BME280;5724;42.684;23.252;2022-08-07T13:00:49;94244.88;;;28.26;42.53
11339;BME280;5724;42.684;23.252;2022-08-07T13:03:48;94219.53;;;28.11;43.94
11339;BME280;5724;42.684;23.252;2022-08-07T13:06:25;94235.34;;;28.33;43.75
11339;BME280;5724;42.684;23.252;2022-08-07T13:11:49;94235.56;;;28.53;43.37
11339;BME280;5724;42.684;23.252;2022-08-07T13:14:44;94225.94;;;28.69;42.99
11339;BME280;5724;42.684;23.252;2022-08-07T13:17:22;94239.78;;;28.72;42.60
11339;BME280;5724;42.684;23.252;2022-08-07T13:20:07;94234.84;;;28.91;41.12
11339;BME280;5724;42.684;23.252;2022-08-07T13:23:03;94220.94;;;28.88;40.40
11339;BME280;5724;42.684;23.252;2022-08-07T13:25:47;94214.09;;;29.03;41.38
11339;BME280;5724;42.684;23.252;2022-08-07T13:28:20;94227.53;;;29.23;40.43
11339;BME280;5724;42.684;23.252;2022-08-07T13:30:57;94224.75;;;28.75;41.18
11339;BME280;5724;42.684;23.252;2022-08-07T13:33:35;94214.59;;;29.02;42.31
11339;BME280;5724;42.684;23.252;2022-08-07T13:36:09;94212.88;;;29.19;41.52
11339;BME280;5724;42.684;23.252;2022-08-07T13:41:49;94211.03;;;29.31;40.08
11339;BME280;5724;42.684;23.252;2022-08-07T13:44:20;94181.13;;;29.04;40.27
11339;BME280;5724;42.684;23.252;2022-08-07T13:46:49;94217.56;;;29.37;40.44
11339;BME280;5724;42.684;23.252;2022-08-07T13:49:19;94217.59;;;29.52;40.86
11339;BME280;5724;42.684;23.252;2022-08-07T13:51:46;94215.91;;;29.30;41.04
11339;BME280;5724;42.684;23.252;2022-08-07T13:54:13;94224.00;;;29.52;40.80
11339;BME280;5724;42.684;23.252;2022-08-07T13:56:41;94221.94;;;29.53;41.15
11339;BME280;5724;42.684;23.252;2022-08-07T13:59:12;94213.59;;;30.03;40.43
11339;BME280;5724;42.684;23.252;2022-08-07T14:01:55;94205.81;;;30.12;39.90
11339;BME280;5724;42.684;23.252;2022-08-07T14:04:29;94200.97;;;29.39;40.38
11339;BME280;5724;42.684;23.252;2022-08-07T14:06:56;94213.56;;;29.29;40.80
11339;BME280;5724;42.684;23.252;2022-08-07T14:09:25;94215.16;;;28.91;41.82
11339;BME280;5724;42.684;23.252;2022-08-07T14:11:55;94234.91;;;29.06;42.47
11339;BME280;5724;42.684;23.252;2022-08-07T14:14:28;94227.41;;;28.79;41.74
11339;BME280;5724;42.684;23.252;2022-08-07T14:16:59;94224.31;;;28.29;42.74
11339;BME280;5724;42.684;23.252;2022-08-07T14:19:54;94229.28;;;27.22;45.64
11339;BME280;5724;42.684;23.252;2022-08-07T14:22:24;94216.50;;;26.75;46.70
11339;BME280;5724;42.684;23.252;2022-08-07T14:24:58;94221.28;;;26.47;47.75
11339;BME280;5724;42.684;23.252;2022-08-07T14:27:42;94216.84;;;26.19;47.64
11339;BME280;5724;42.684;23.252;2022-08-07T14:30:10;94234.84;;;26.49;47.80
11339;BME280;5724;42.684;23.252;2022-08-07T14:32:46;94231.75;;;26.56;47.82
11339;BME280;5724;42.684;23.252;2022-08-07T14:35:18;94231.75;;;26.56;47.99
11339;BME280;5724;42.684;23.252;2022-08-07T14:37:46;94233.94;;;26.89;47.75
11339;BME280;5724;42.684;23.252;2022-08-07T14:40:15;94236.44;;;26.96;47.89
11339;BME280;5724;42.684;23.252;2022-08-07T14:42:43;94224.56;;;27.01;47.99
11339;BME280;5724;42.684;23.252;2022-08-07T14:45:10;94222.72;;;26.79;49.00
11339;BME280;5724;42.684;23.252;2022-08-07T14:47:38;94219.13;;;26.88;49.18
11339;BME280;5724;42.684;23.252;2022-08-07T14:50:08;94222.56;;;27.10;48.71
11339;BME280;5724;42.684;23.252;2022-08-07T14:52:36;94213.63;;;27.49;48.17
11339;BME280;5724;42.684;23.252;2022-08-07T14:55:04;94216.78;;;27.42;47.90
11339;BME280;5724;42.684;23.252;2022-08-07T14:57:31;94215.44;;;27.79;47.59
11339;BME280;5724;42.684;23.252;2022-08-07T14:59:59;94218.50;;;28.00;46.66
11339;BME280;5724;42.684;23.252;2022-08-07T15:02:26;94224.38;;;28.11;46.79
11339;BME280;5724;42.684;23.252;2022-08-07T15:04:53;94223.19;;;27.93;46.63
11339;BME280;5724;42.684;23.252;2022-08-07T15:07:21;94214.75;;;27.93;46.70
11339;BME280;5724;42.684;23.252;2022-08-07T15:09:50;94214.06;;;28.08;46.46
11339;BME280;5724;42.684;23.252;2022-08-07T15:12:34;94206.03;;;27.91;46.84
11339;BME280;5724;42.684;23.252;2022-08-07T15:15:05;94196.88;;;27.82;46.78
11339;BME280;5724;42.684;23.252;2022-08-07T15:17:38;94201.19;;;27.92;46.45
11339;BME280;5724;42.684;23.252;2022-08-07T15:20:08;94205.91;;;27.86;46.21
11339;BME280;5724;42.684;23.252;2022-08-07T15:22:46;94207.94;;;27.85;46.63